Time;durP1;ratioP1;P1;durP2;ratioP2;P2;SDS_P1;SDS_P2;PMS_P1;PMS_P2;Temp;Humidity;BMP_temperature;BMP_pressure;BME280_temperature;BME280_humidity;BME280_pressure;Samples;Min_cycle;Max_cycle;Signal;HPM_P1;HPM_P2
2021/05/19 00:02:07;;;;;;;;;;;;;;;14.87;56.64;100878.78;5036846;27;96699;-76
2021/05/19 00:04:33;;;;;;;;;;;;;;;15.00;56.07;100877.22;5035605;27;96921;-75
2021/05/19 00:07:00;;;;;;;;;;;;;;;14.99;55.79;100882.59;5034274;27;98959;-77
2021/05/19 00:09:26;;;;;;;;;;;;;;;14.93;56.01;100885.56;5035771;27;98739;-76
2021/05/19 00:11:51;;;;;;;;;;;;;;;14.89;56.13;100876.91;5037385;27;97288;-77
2021/05/19 00:14:18;;;;;;;;;;;;;;;14.84;56.34;100886.03;5036325;27;96967;-76
2021/05/19 00:16:44;;;;;;;;;;;;;;;14.76;56.39;100878.47;5034639;27;99186;-77
2021/05/19 00:19:11;;;;;;;;;;;;;;;14.62;56.97;100880.97;5044338;27;99107;-76
2021/05/19 00:21:37;;;;;;;;;;;;;;;14.53;57.00;100876.09;5036595;27;96836;-76
2021/05/19 00:24:03;;;;;;;;;;;;;;;14.81;56.16;100883.53;5036545;27;96877;-76
2021/05/19 00:26:29;;;;;;;;;;;;;;;14.95;55.63;100889.03;5036533;27;98863;-76
2021/05/19 00:28:55;;;;;;;;;;;;;;;14.77;55.80;100882.00;5037011;28;99404;-76
2021/05/19 00:31:23;;;;;;;;;;;;;;;14.59;56.63;100883.75;5036532;27;97431;-76
2021/05/19 00:33:49;;;;;;;;;;;;;;;15.00;55.52;100893.16;5034146;27;97502;-76
2021/05/19 00:36:15;;;;;;;;;;;;;;;14.49;56.80;100887.81;5034500;27;98977;-76
2021/05/19 00:38:41;;;;;;;;;;;;;;;14.67;56.19;100884.25;5037348;27;98116;-77
2021/05/19 00:41:07;;;;;;;;;;;;;;;14.79;55.67;100878.28;5037177;27;96850;-77
2021/05/19 00:43:33;;;;;;;;;;;;;;;14.56;56.08;100879.47;5036773;27;98651;-76
2021/05/19 00:45:59;;;;;;;;;;;;;;;14.47;56.34;100885.22;5035107;27;98443;-77
2021/05/19 00:48:25;;;;;;;;;;;;;;;14.45;56.83;100884.44;5035210;27;99238;-78
2021/05/19 00:50:51;;;;;;;;;;;;;;;14.77;56.13;100888.16;5034790;27;97293;-76
2021/05/19 00:53:17;;;;;;;;;;;;;;;14.25;57.89;100887.16;5036870;27;96923;-77
2021/05/19 00:55:43;;;;;;;;;;;;;;;14.52;57.09;100888.50;5035881;27;98006;-76
2021/05/19 00:58:09;;;;;;;;;;;;;;;14.29;57.44;100884.31;5036905;28;98870;-77
2021/05/19 01:00:36;;;;;;;;;;;;;;;14.65;56.40;100886.97;5045401;27;98440;-77
2021/05/19 01:03:01;;;;;;;;;;;;;;;14.79;56.34;100891.59;5050431;28;96857;-76
2021/05/19 01:05:29;;;;;;;;;;;;;;;14.89;56.14;100890.22;5037583;27;99428;-76
2021/05/19 01:10:41;;;;;;;;;;;;;;;14.80;56.34;100900.44;5034972;27;97348;-77
2021/05/19 01:13:07;;;;;;;;;;;;;;;14.91;56.13;100892.78;5028065;27;98004;-77
2021/05/19 01:15:33;;;;;;;;;;;;;;;14.95;56.06;100894.34;5032408;27;99384;-77
2021/05/19 01:17:59;;;;;;;;;;;;;;;14.67;56.99;100895.75;5044850;27;100471;-77
2021/05/19 01:20:25;;;;;;;;;;;;;;;14.93;56.23;100906.88;5040444;27;97291;-77
2021/05/19 01:22:51;;;;;;;;;;;;;;;14.93;55.93;100906.88;5035897;27;96900;-75
2021/05/19 01:25:17;;;;;;;;;;;;;;;14.90;56.05;100907.88;5035449;27;99277;-77
2021/05/19 01:27:50;;;;;;;;;;;;;;;14.93;54.95;100901.53;5035151;28;98822;-76
2021/05/19 01:30:16;;;;;;;;;;;;;;;15.13;53.73;100894.25;5035084;27;97806;-76
2021/05/19 01:32:42;;;;;;;;;;;;;;;15.23;53.19;100901.78;5030939;27;99128;-75
2021/05/19 01:35:08;;;;;;;;;;;;;;;15.48;52.43;100895.06;5033617;27;98928;-76
2021/05/19 01:37:37;;;;;;;;;;;;;;;15.40;52.91;100907.06;5034699;27;99087;-76
2021/05/19 01:40:05;;;;;;;;;;;;;;;15.60;52.20;100903.38;5035478;27;97501;-76
2021/05/19 01:42:30;;;;;;;;;;;;;;;15.47;52.79;100909.31;5035865;28;96874;-76
2021/05/19 01:44:56;;;;;;;;;;;;;;;15.82;51.87;100903.91;5038719;27;99211;-76
2021/05/19 01:47:30;;;;;;;;;;;;;;;15.78;51.46;100902.38;5051919;27;97774;-76
2021/05/19 01:49:56;;;;;;;;;;;;;;;15.70;51.53;100905.44;5051898;27;96734;-76
2021/05/19 01:52:22;;;;;;;;;;;;;;;15.80;51.00;100905.81;5052256;27;96700;-77
2021/05/19 01:54:48;;;;;;;;;;;;;;;16.09;50.12;100898.88;5055477;27;98888;-77
2021/05/19 01:57:15;;;;;;;;;;;;;;;16.08;49.83;100899.84;5042858;27;97714;-76
2021/05/19 01:59:41;;;;;;;;;;;;;;;15.93;49.63;100905.06;5036726;27;97699;-76
2021/05/19 02:02:07;;;;;;;;;;;;;;;16.05;49.59;100913.31;5036082;27;96824;-76
2021/05/19 02:04:33;;;;;;;;;;;;;;;16.21;49.25;100912.38;5035877;27;99071;-74
2021/05/19 02:06:59;;;;;;;;;;;;;;;16.13;49.35;100908.44;5036329;27;97857;-75
2021/05/19 02:09:25;;;;;;;;;;;;;;;16.04;49.88;100909.78;5036097;27;96760;-76
2021/05/19 02:11:51;;;;;;;;;;;;;;;16.12;49.37;100909.38;5034969;27;97333;-76
2021/05/19 02:14:18;;;;;;;;;;;;;;;15.90;49.38;100915.88;5033844;27;99193;-76
2021/05/19 02:16:44;;;;;;;;;;;;;;;15.98;49.40;100920.81;5036890;27;99314;-77
2021/05/19 02:19:10;;;;;;;;;;;;;;;15.84;49.30;100915.34;5033830;27;97301;-76
2021/05/19 02:21:39;;;;;;;;;;;;;;;16.02;49.20;100924.13;5032425;27;97123;-76
2021/05/19 02:24:05;;;;;;;;;;;;;;;16.27;48.52;100925.38;5034511;27;99331;-76
2021/05/19 02:26:31;;;;;;;;;;;;;;;16.05;49.10;100922.19;5034009;27;99112;-76
2021/05/19 02:28:56;;;;;;;;;;;;;;;16.26;48.43;100923.66;5034316;27;97331;-76
2021/05/19 02:31:23;;;;;;;;;;;;;;;16.33;48.22;100925.03;5033159;27;96810;-76
2021/05/19 02:33:49;;;;;;;;;;;;;;;16.18;48.85;100928.56;5030121;27;98949;-76
2021/05/19 02:36:14;;;;;;;;;;;;;;;16.19;48.70;100934.75;5035606;27;100154;-76
2021/05/19 02:38:40;;;;;;;;;;;;;;;15.88;49.32;100932.91;5036064;28;97599;-76
2021/05/19 02:41:06;;;;;;;;;;;;;;;15.94;49.40;100933.44;5035747;27;98923;-76
2021/05/19 02:43:32;;;;;;;;;;;;;;;16.11;49.07;100931.66;5049855;27;99225;-77
2021/05/19 02:45:58;;;;;;;;;;;;;;;15.95;49.30;100929.81;5049811;27;97767;-76
2021/05/19 02:48:24;;;;;;;;;;;;;;;15.92;49.46;100929.13;5051546;27;97708;-76
2021/05/19 02:50:50;;;;;;;;;;;;;;;15.84;49.87;100934.00;5050582;27;96915;-77
2021/05/19 02:53:16;;;;;;;;;;;;;;;16.02;49.32;100938.34;5048725;27;98846;-76
2021/05/19 02:55:42;;;;;;;;;;;;;;;16.14;49.17;100943.00;5043087;27;98900;-77
2021/05/19 02:58:08;;;;;;;;;;;;;;;15.58;50.44;100943.41;5043402;27;96696;-76
2021/05/19 03:00:34;;;;;;;;;;;;;;;15.51;50.76;100947.28;5042218;27;97071;-75
2021/05/19 03:02:59;;;;;;;;;;;;;;;15.57;50.64;100944.34;5051692;27;98903;-75
2021/05/19 03:05:29;;;;;;;;;;;;;;;15.87;50.23;100952.50;5046104;27;97717;-76
2021/05/19 03:07:54;;;;;;;;;;;;;;;15.84;50.11;100955.31;5037976;27;96973;-76
2021/05/19 03:10:20;;;;;;;;;;;;;;;15.81;50.11;100950.19;5035737;27;99001;-77
2021/05/19 03:12:46;;;;;;;;;;;;;;;16.07;49.47;100951.44;5034105;28;98869;-77
2021/05/19 03:15:13;;;;;;;;;;;;;;;16.02;49.54;100954.31;5033680;27;97704;-77
2021/05/19 03:17:39;;;;;;;;;;;;;;;15.84;49.85;100955.31;5035837;27;97916;-77
2021/05/19 03:20:05;;;;;;;;;;;;;;;16.00;49.34;100955.38;5040126;27;96824;-77
2021/05/19 03:22:32;;;;;;;;;;;;;;;15.89;49.73;100954.13;5040189;27;99308;-78
2021/05/19 03:24:58;;;;;;;;;;;;;;;15.72;49.97;100961.31;5034817;27;98829;-77
2021/05/19 03:27:23;;;;;;;;;;;;;;;15.67;50.05;100963.38;5034861;27;96824;-77
2021/05/19 03:29:49;;;;;;;;;;;;;;;15.91;49.46;100960.25;5033758;27;98130;-77
2021/05/19 03:32:15;;;;;;;;;;;;;;;15.98;49.28;100966.09;5033357;28;99305;-77
2021/05/19 03:34:41;;;;;;;;;;;;;;;15.87;49.17;100961.38;5031776;27;99155;-78
2021/05/19 03:37:07;;;;;;;;;;;;;;;15.98;49.07;100962.59;5032985;27;96997;-77
2021/05/19 03:39:33;;;;;;;;;;;;;;;16.14;48.96;100975.00;5033936;27;96819;-77
2021/05/19 03:41:59;;;;;;;;;;;;;;;15.83;49.51;100982.91;5032531;27;99114;-77
2021/05/19 03:44:25;;;;;;;;;;;;;;;15.40;50.80;100971.84;5031073;27;100117;-77
2021/05/19 03:46:53;;;;;;;;;;;;;;;15.81;49.75;100977.69;5030875;27;97171;-77
2021/05/19 03:49:19;;;;;;;;;;;;;;;15.83;50.10;100981.09;5034711;27;97039;-77
2021/05/19 03:51:45;;;;;;;;;;;;;;;15.97;49.49;100976.84;5032475;27;98827;-77
2021/05/19 03:54:10;;;;;;;;;;;;;;;16.16;48.96;100974.91;5032823;27;99148;-77
2021/05/19 03:56:37;;;;;;;;;;;;;;;15.95;49.30;100982.25;5032760;27;97369;-77
2021/05/19 03:59:03;;;;;;;;;;;;;;;15.80;49.46;100975.97;5033905;27;96901;-76
2021/05/19 04:01:29;;;;;;;;;;;;;;;15.88;49.70;100980.88;5032845;27;99234;-75
2021/05/19 04:03:54;;;;;;;;;;;;;;;15.71;49.90;100987.09;5031718;27;97534;-77
2021/05/19 04:06:23;;;;;;;;;;;;;;;15.95;49.41;100983.13;5032485;27;96792;-75
2021/05/19 04:08:49;;;;;;;;;;;;;;;16.07;49.33;100978.94;5025070;28;97171;-77
2021/05/19 04:11:14;;;;;;;;;;;;;;;16.03;49.27;100985.38;5031531;27;98896;-76
2021/05/19 04:13:41;;;;;;;;;;;;;;;15.80;50.12;100985.75;5031925;27;98782;-77
2021/05/19 04:16:07;;;;;;;;;;;;;;;15.85;49.91;100987.22;5033135;27;96861;-76
2021/05/19 04:18:33;;;;;;;;;;;;;;;16.02;49.78;100996.09;5034137;27;96813;-76
2021/05/19 04:20:58;;;;;;;;;;;;;;;15.63;50.65;100999.09;5032962;28;98953;-77
2021/05/19 04:23:26;;;;;;;;;;;;;;;15.66;50.45;100996.28;5031646;27;98961;-77
2021/05/19 04:25:52;;;;;;;;;;;;;;;15.95;49.98;101007.09;5032951;27;98716;-77
2021/05/19 04:28:18;;;;;;;;;;;;;;;16.12;49.35;100998.22;5033842;27;96729;-75
2021/05/19 04:30:45;;;;;;;;;;;;;;;16.13;49.33;100999.94;5032960;27;98007;-75
2021/05/19 04:33:11;;;;;;;;;;;;;;;16.21;49.52;101002.19;5026897;27;99202;-75
2021/05/19 04:35:37;;;;;;;;;;;;;;;15.62;50.56;101008.88;5029264;27;97624;-76
2021/05/19 04:38:03;;;;;;;;;;;;;;;15.56;51.01;101011.88;5033591;27;96892;-75
2021/05/19 04:40:29;;;;;;;;;;;;;;;16.04;49.99;101012.88;5033415;27;98999;-76
2021/05/19 04:42:55;;;;;;;;;;;;;;;16.09;49.61;101002.84;5031439;27;98839;-76
2021/05/19 04:45:21;;;;;;;;;;;;;;;16.37;49.19;101011.06;5033835;27;97378;-75
2021/05/19 04:47:48;;;;;;;;;;;;;;;16.49;48.86;101012.16;5033291;27;96934;-76
2021/05/19 04:50:14;;;;;;;;;;;;;;;16.42;48.72;101011.66;5037392;27;98901;-76
2021/05/19 04:52:40;;;;;;;;;;;;;;;16.72;48.04;101009.13;5034248;27;99198;-75
2021/05/19 04:55:07;;;;;;;;;;;;;;;16.30;48.83;101015.88;5035887;27;96995;-77
2021/05/19 04:57:33;;;;;;;;;;;;;;;16.45;48.75;101013.31;5036186;28;96863;-76
2021/05/19 04:59:58;;;;;;;;;;;;;;;16.85;47.69;101010.16;5034770;27;98848;-76
2021/05/19 05:02:24;;;;;;;;;;;;;;;17.33;46.57;101014.41;5036308;27;98973;-76
2021/05/19 05:04:52;;;;;;;;;;;;;;;17.73;45.59;101015.59;5036527;27;96797;-76
2021/05/19 05:07:18;;;;;;;;;;;;;;;17.88;45.23;101016.47;5053848;27;97116;-75
2021/05/19 05:09:47;;;;;;;;;;;;;;;18.87;42.88;101013.72;5042428;28;98058;-75
2021/05/19 05:12:13;;;;;;;;;;;;;;;19.50;41.24;101015.75;5035392;27;99322;-76
2021/05/19 05:14:39;;;;;;;;;;;;;;;18.82;42.39;101013.16;5035085;27;97650;-76
2021/05/19 05:17:04;;;;;;;;;;;;;;;18.60;43.14;101024.41;5036309;27;96973;-76
2021/05/19 05:19:30;;;;;;;;;;;;;;;17.40;45.33;101023.78;5035451;27;99030;-76
2021/05/19 05:21:57;;;;;;;;;;;;;;;18.01;44.54;101020.13;5032918;27;98717;-76
2021/05/19 05:24:23;;;;;;;;;;;;;;;17.92;44.74;101021.53;5036292;28;96927;-75
2021/05/19 05:26:48;;;;;;;;;;;;;;;17.88;44.69;101022.69;5037694;27;96817;-76
2021/05/19 05:29:14;;;;;;;;;;;;;;;17.68;45.23;101031.06;5034087;27;98354;-75
2021/05/19 05:31:40;;;;;;;;;;;;;;;17.53;45.86;101037.28;5029227;27;98915;-76
2021/05/19 05:34:06;;;;;;;;;;;;;;;17.86;45.12;101032.59;5033829;27;97048;-76
2021/05/19 05:36:32;;;;;;;;;;;;;;;17.91;44.52;101035.88;5031931;27;96810;-76
2021/05/19 05:38:58;;;;;;;;;;;;;;;17.72;45.06;101042.44;5035049;28;99238;-76
2021/05/19 05:41:24;;;;;;;;;;;;;;;16.56;46.86;101041.09;5035748;28;98769;-76
2021/05/19 05:43:50;;;;;;;;;;;;;;;17.19;46.13;101041.09;5034272;27;96915;-75
2021/05/19 05:46:16;;;;;;;;;;;;;;;17.94;44.60;101040.16;5034503;27;96856;-75
2021/05/19 05:48:42;;;;;;;;;;;;;;;17.63;44.91;101051.84;5032846;27;99134;-76
2021/05/19 05:51:08;;;;;;;;;;;;;;;16.88;46.06;101051.78;5035081;28;98958;-76
2021/05/19 05:53:34;;;;;;;;;;;;;;;17.29;45.36;101047.59;5034881;27;96913;-77
2021/05/19 05:56:01;;;;;;;;;;;;;;;17.20;45.58;101057.97;5035237;27;96910;-78
2021/05/19 05:58:27;;;;;;;;;;;;;;;17.45;45.12;101052.94;5034392;27;98989;-76
2021/05/19 06:00:52;;;;;;;;;;;;;;;17.85;44.15;101054.94;5035515;27;101265;-76
2021/05/19 06:03:18;;;;;;;;;;;;;;;18.03;43.57;101060.13;5030173;27;96910;-76
2021/05/19 06:05:44;;;;;;;;;;;;;;;18.30;42.79;101064.63;5034693;27;96852;-77
2021/05/19 06:08:10;;;;;;;;;;;;;;;18.76;42.05;101060.88;5035276;27;98872;-78
2021/05/19 06:10:36;;;;;;;;;;;;;;;18.82;42.00;101060.50;5036565;27;98903;-76
2021/05/19 06:13:02;;;;;;;;;;;;;;;18.70;41.65;101068.38;5035439;27;98591;-76
2021/05/19 06:15:28;;;;;;;;;;;;;;;18.23;42.51;101068.66;5036869;27;96891;-77
2021/05/19 06:17:54;;;;;;;;;;;;;;;18.62;42.25;101072.47;5037281;27;98845;-77
2021/05/19 06:20:20;;;;;;;;;;;;;;;18.79;41.97;101066.03;5036059;28;99177;-76
2021/05/19 06:22:46;;;;;;;;;;;;;;;17.62;44.06;101070.66;5035057;27;97363;-76
2021/05/19 06:25:12;;;;;;;;;;;;;;;17.83;43.82;101074.72;5035870;27;97250;-78
2021/05/19 06:27:38;;;;;;;;;;;;;;;17.94;43.31;101066.91;5033975;27;99274;-79
2021/05/19 06:30:06;;;;;;;;;;;;;;;17.72;43.86;101063.81;5033608;27;97700;-78
2021/05/19 06:32:32;;;;;;;;;;;;;;;17.85;44.06;101067.47;5029456;27;96853;-77
2021/05/19 06:34:58;;;;;;;;;;;;;;;18.51;42.37;101070.44;5031764;27;98285;-77
2021/05/19 06:37:24;;;;;;;;;;;;;;;19.26;40.48;101070.97;5035250;27;101009;-76
2021/05/19 06:39:50;;;;;;;;;;;;;;;19.30;40.36;101078.69;5028708;27;98936;-75
2021/05/19 06:42:15;;;;;;;;;;;;;;;19.96;38.53;101066.19;5032386;27;96907;-77
2021/05/19 06:44:41;;;;;;;;;;;;;;;20.10;38.01;101069.63;5029058;27;97295;-77
2021/05/19 06:47:08;;;;;;;;;;;;;;;19.35;39.23;101071.22;5034220;27;99264;-77
2021/05/19 06:49:34;;;;;;;;;;;;;;;20.69;36.99;101072.59;5030712;27;99170;-76
2021/05/19 06:52:00;;;;;;;;;;;;;;;19.59;38.92;101076.78;5031670;27;96896;-73
2021/05/19 06:54:25;;;;;;;;;;;;;;;19.76;38.24;101075.59;5029590;27;98519;-76
2021/05/19 06:56:51;;;;;;;;;;;;;;;20.50;36.94;101081.13;5028252;27;98432;-75
2021/05/19 06:59:18;;;;;;;;;;;;;;;20.28;37.39;101079.06;5026036;28;98838;-75
2021/05/19 07:01:44;;;;;;;;;;;;;;;20.01;37.94;101074.81;5027464;27;96831;-75
2021/05/19 07:04:11;;;;;;;;;;;;;;;20.37;37.65;101076.75;5027682;27;97102;-77
2021/05/19 07:06:37;;;;;;;;;;;;;;;20.67;36.07;101069.19;5031719;27;98155;-76
2021/05/19 07:09:04;;;;;;;;;;;;;;;21.59;34.02;101080.25;5040436;27;98772;-75
2021/05/19 07:11:29;;;;;;;;;;;;;;;21.41;34.09;101076.22;5027068;27;98511;-74
2021/05/19 07:13:57;;;;;;;;;;;;;;;21.46;34.14;101077.59;5028121;27;96995;-75
2021/05/19 07:16:24;;;;;;;;;;;;;;;20.67;34.58;101078.13;5028580;27;98877;-74
2021/05/19 07:18:56;;;;;;;;;;;;;;;20.04;35.05;101077.25;5030641;27;101440;-75
2021/05/19 07:21:26;;;;;;;;;;;;;;;19.92;35.82;101083.47;5026491;27;96818;-76
2021/05/19 07:23:52;;;;;;;;;;;;;;;19.49;35.67;101068.47;5026519;27;97074;-76
2021/05/19 07:26:20;;;;;;;;;;;;;;;19.84;35.53;101079.50;5027503;27;97904;-75
2021/05/19 07:28:45;;;;;;;;;;;;;;;20.32;34.96;101071.69;5026953;27;99583;-75
2021/05/19 07:31:11;;;;;;;;;;;;;;;19.89;36.36;101081.84;5027638;27;99482;-75
2021/05/19 07:33:37;;;;;;;;;;;;;;;20.60;35.54;101078.66;5030341;27;96819;-75
2021/05/19 07:36:03;;;;;;;;;;;;;;;20.74;35.00;101078.53;5031115;27;98970;-75
2021/05/19 07:38:30;;;;;;;;;;;;;;;20.27;35.61;101082.75;5020652;27;99161;-75
2021/05/19 07:40:56;;;;;;;;;;;;;;;21.07;34.11;101084.09;5032874;27;96857;-75
2021/05/19 07:43:21;;;;;;;;;;;;;;;20.47;35.10;101091.25;5030436;27;97958;-76
2021/05/19 07:45:47;;;;;;;;;;;;;;;20.63;34.35;101083.78;5030618;27;98945;-75
2021/05/19 07:48:13;;;;;;;;;;;;;;;20.85;33.00;101094.72;5032987;27;98987;-77
2021/05/19 07:50:39;;;;;;;;;;;;;;;21.24;32.75;101084.72;5024755;27;96766;-75
2021/05/19 07:53:05;;;;;;;;;;;;;;;21.76;31.91;101087.84;5028328;27;97263;-76
2021/05/19 07:55:43;;;;;;;;;;;;;;;21.75;31.47;101088.84;5032447;27;98985;-76
2021/05/19 07:58:13;;;;;;;;;;;;;;;21.69;31.43;101083.94;5031602;27;98796;-75
2021/05/19 08:00:49;;;;;;;;;;;;;;;21.65;31.65;101084.28;5032858;27;99140;-76
2021/05/19 08:03:15;;;;;;;;;;;;;;;21.07;33.11;101088.59;5021294;27;97686;-76
2021/05/19 08:05:41;;;;;;;;;;;;;;;21.78;32.27;101085.91;5029888;27;98844;-77
2021/05/19 08:08:07;;;;;;;;;;;;;;;21.53;32.74;101086.06;5028326;27;102033;-76
2021/05/19 08:10:33;;;;;;;;;;;;;;;21.65;32.11;101079.78;5033780;27;97383;-76
2021/05/19 08:12:59;;;;;;;;;;;;;;;21.24;31.55;101082.88;5027954;27;97211;-77
2021/05/19 08:15:25;;;;;;;;;;;;;;;22.17;30.65;101076.63;5033867;27;97804;-77
2021/05/19 08:17:51;;;;;;;;;;;;;;;22.32;30.57;101089.84;5033174;28;99252;-76
2021/05/19 08:20:20;;;;;;;;;;;;;;;22.41;30.78;101081.88;5027176;27;96982;-76
2021/05/19 08:22:46;;;;;;;;;;;;;;;22.63;30.56;101086.41;5034433;27;97926;-74
2021/05/19 08:25:12;;;;;;;;;;;;;;;22.13;31.36;101085.88;5027550;27;98996;-76
2021/05/19 08:27:39;;;;;;;;;;;;;;;21.27;33.27;101088.00;5034221;28;96995;-76
2021/05/19 08:30:26;;;;;;;;;;;;;;;21.60;33.26;101091.81;5030420;28;97022;-76
2021/05/19 08:32:52;;;;;;;;;;;;;;;21.17;33.67;101095.06;5033946;27;99225;-76
2021/05/19 08:35:18;;;;;;;;;;;;;;;21.39;33.05;101094.31;5036729;27;97053;-75
2021/05/19 08:37:44;;;;;;;;;;;;;;;20.59;34.13;101093.03;5034751;27;98945;-76
2021/05/19 08:40:10;;;;;;;;;;;;;;;20.27;33.61;101096.16;5030602;27;98481;-75
2021/05/19 08:42:37;;;;;;;;;;;;;;;20.89;32.98;101101.56;5034483;27;97357;-75
2021/05/19 08:45:12;;;;;;;;;;;;;;;21.29;32.33;101104.03;5034008;27;99074;-76
2021/05/19 08:47:38;;;;;;;;;;;;;;;20.66;33.59;101092.50;5033685;28;99816;-75
2021/05/19 08:50:06;;;;;;;;;;;;;;;20.46;34.84;101098.44;5033953;27;97144;-75
2021/05/19 08:52:38;;;;;;;;;;;;;;;21.58;33.82;101094.66;5035666;28;99501;-74
2021/05/19 08:55:08;;;;;;;;;;;;;;;21.59;33.46;101093.69;5028583;28;97904;-75
2021/05/19 08:57:38;;;;;;;;;;;;;;;20.89;34.06;101090.81;5034993;27;98907;-74
2021/05/19 09:00:07;;;;;;;;;;;;;;;20.83;33.87;101093.94;5035014;28;97907;-75
2021/05/19 09:02:32;;;;;;;;;;;;;;;21.26;33.01;101098.91;5036568;27;96933;-76
2021/05/19 09:04:59;;;;;;;;;;;;;;;21.19;33.13;101097.63;5035056;27;99017;-75
2021/05/19 09:07:25;;;;;;;;;;;;;;;21.46;31.76;101098.28;5039399;28;98839;-76
2021/05/19 09:09:51;;;;;;;;;;;;;;;21.44;30.93;101100.22;5048053;27;96777;-73
2021/05/19 09:12:18;;;;;;;;;;;;;;;21.70;30.85;101092.84;5037263;27;97794;-76
2021/05/19 09:15:00;;;;;;;;;;;;;;;21.72;31.30;101082.84;5029599;28;98867;-74
2021/05/19 09:17:28;;;;;;;;;;;;;;;21.68;31.78;101095.66;5033351;27;98778;-75
2021/05/19 09:19:58;;;;;;;;;;;;;;;21.90;31.91;101096.69;5032985;28;97188;-74
2021/05/19 09:22:25;;;;;;;;;;;;;;;20.71;32.62;101094.84;5030609;27;96908;-77
2021/05/19 09:24:51;;;;;;;;;;;;;;;21.44;30.81;101092.13;5029949;28;98865;-75
2021/05/19 09:27:17;;;;;;;;;;;;;;;21.44;30.54;101089.44;5025816;27;98963;-74
2021/05/19 09:29:45;;;;;;;;;;;;;;;21.33;30.76;101090.25;5029453;27;97219;-75
2021/05/19 09:32:13;;;;;;;;;;;;;;;20.72;31.90;101090.34;5034835;27;97569;-75
2021/05/19 09:34:40;;;;;;;;;;;;;;;21.15;31.27;101096.09;5029888;28;98836;-75
2021/05/19 09:37:17;;;;;;;;;;;;;;;20.80;31.29;101094.19;5032892;28;98909;-75
2021/05/19 09:39:46;;;;;;;;;;;;;;;20.57;31.94;101097.66;5033087;27;96767;-75
2021/05/19 09:42:12;;;;;;;;;;;;;;;21.03;30.80;101090.66;5032496;28;98834;-75
2021/05/19 09:44:38;;;;;;;;;;;;;;;21.06;31.12;101094.97;5026215;28;99516;-75
2021/05/19 09:47:04;;;;;;;;;;;;;;;21.65;30.34;101090.53;5033866;28;101152;-75
2021/05/19 09:49:30;;;;;;;;;;;;;;;21.38;30.63;101088.09;5035376;27;97357;-75
2021/05/19 09:51:58;;;;;;;;;;;;;;;21.00;31.20;101090.06;5033543;27;96941;-75
2021/05/19 09:54:28;;;;;;;;;;;;;;;20.76;32.19;101091.81;5033988;27;98911;-75
2021/05/19 09:56:54;;;;;;;;;;;;;;;20.79;32.27;101081.72;5030221;27;98100;-75
2021/05/19 09:59:20;;;;;;;;;;;;;;;19.87;33.28;101083.81;5025673;28;96840;-75
2021/05/19 10:01:46;;;;;;;;;;;;;;;20.24;33.09;101106.25;5033949;27;97302;-76
2021/05/19 10:04:12;;;;;;;;;;;;;;;20.23;32.42;101099.16;5030558;27;98418;-74
2021/05/19 10:06:39;;;;;;;;;;;;;;;19.92;33.28;101089.69;5031202;27;99077;-75
2021/05/19 10:09:06;;;;;;;;;;;;;;;20.66;32.44;101089.81;5035178;28;96958;-76
2021/05/19 10:11:43;;;;;;;;;;;;;;;19.69;33.87;101096.63;5032433;27;97088;-75
2021/05/19 10:14:11;;;;;;;;;;;;;;;19.92;33.54;101096.88;5035917;27;99126;-76
2021/05/19 10:16:38;;;;;;;;;;;;;;;19.69;33.92;101096.63;5034064;28;99196;-75
2021/05/19 10:19:04;;;;;;;;;;;;;;;19.33;34.40;101102.59;5035868;27;96937;-75
2021/05/19 10:21:31;;;;;;;;;;;;;;;19.92;33.49;101102.25;5037176;28;96980;-75
2021/05/19 10:24:02;;;;;;;;;;;;;;;20.09;33.57;101093.88;5041607;27;98943;-76
2021/05/19 10:26:29;;;;;;;;;;;;;;;20.43;32.84;101089.72;5038514;28;98354;-74
2021/05/19 10:28:55;;;;;;;;;;;;;;;20.70;32.32;101095.81;5048282;28;96836;-75
2021/05/19 10:31:23;;;;;;;;;;;;;;;21.24;31.12;101088.25;5054473;27;97056;-75
2021/05/19 10:33:49;;;;;;;;;;;;;;;21.27;31.55;101096.06;5049846;28;97599;-76
2021/05/19 10:36:36;;;;;;;;;;;;;;;21.57;30.66;101084.88;5043534;28;99684;-77
2021/05/19 10:39:22;;;;;;;;;;;;;;;20.36;32.14;101088.44;5041855;27;97152;-75
2021/05/19 10:41:50;;;;;;;;;;;;;;;21.61;30.12;101089.03;5043856;27;97148;-77
2021/05/19 10:44:16;;;;;;;;;;;;;;;21.64;30.12;101082.56;5037878;28;97807;-77
2021/05/19 10:46:53;;;;;;;;;;;;;;;21.05;30.79;101080.69;5033308;27;98100;-77
2021/05/19 10:49:20;;;;;;;;;;;;;;;20.87;30.89;101084.69;5033672;28;97058;-77
2021/05/19 10:52:03;;;;;;;;;;;;;;;21.77;29.85;101094.09;5031807;28;97258;-76
2021/05/19 10:57:30;;;;;;;;;;;;;;;21.18;31.01;101079.78;5032732;28;97108;-77
2021/05/19 11:00:19;;;;;;;;;;;;;;;20.92;30.78;101079.88;5031724;27;97342;-77
2021/05/19 11:03:05;;;;;;;;;;;;;;;20.15;31.88;101078.22;5033914;28;96896;-75
2021/05/19 11:05:38;;;;;;;;;;;;;;;20.60;31.37;101066.09;5026291;28;98857;-76
2021/05/19 11:08:32;;;;;;;;;;;;;;;20.98;31.53;101074.03;5033149;27;98801;-76
2021/05/19 11:11:17;;;;;;;;;;;;;;;21.14;30.80;101062.13;5008870;27;96840;-78
2021/05/19 11:13:57;;;;;;;;;;;;;;;21.37;30.75;101059.50;5028254;28;96757;-76
2021/05/19 11:16:27;;;;;;;;;;;;;;;21.42;30.55;101072.56;5037240;28;98915;-76
2021/05/19 11:19:07;;;;;;;;;;;;;;;20.50;31.71;101085.63;5040769;27;97811;-77
2021/05/19 11:21:33;;;;;;;;;;;;;;;19.78;33.43;101076.38;5029613;28;97311;-77
2021/05/19 11:24:08;;;;;;;;;;;;;;;20.44;32.73;101088.75;5037665;27;96877;-76
2021/05/19 11:26:36;;;;;;;;;;;;;;;19.84;33.80;101086.69;5042194;27;98881;-75
2021/05/19 11:29:01;;;;;;;;;;;;;;;20.10;33.11;101087.56;5051733;27;100702;-76
2021/05/19 11:31:33;;;;;;;;;;;;;;;20.99;31.86;101080.28;5038945;27;96855;-76
2021/05/19 11:34:00;;;;;;;;;;;;;;;20.68;31.98;101079.81;5039477;28;96737;-75
2021/05/19 11:36:30;;;;;;;;;;;;;;;20.38;31.60;101076.63;5039294;27;98997;-77
2021/05/19 11:38:56;;;;;;;;;;;;;;;20.88;30.74;101074.81;5036698;27;98912;-76
2021/05/19 11:41:22;;;;;;;;;;;;;;;21.13;31.17;101071.19;5034944;27;97168;-76
2021/05/19 11:43:51;;;;;;;;;;;;;;;21.75;29.92;101072.69;5031141;28;96894;-77
2021/05/19 11:46:17;;;;;;;;;;;;;;;22.06;29.54;101078.41;5031326;27;98794;-75
2021/05/19 11:48:49;;;;;;;;;;;;;;;21.75;29.99;101067.31;5030756;28;98853;-76
2021/05/19 11:51:19;;;;;;;;;;;;;;;21.37;30.09;101070.25;5030209;27;96981;-76
2021/05/19 11:53:55;;;;;;;;;;;;;;;19.52;33.23;101085.31;5029319;27;97586;-76
2021/05/19 11:56:22;;;;;;;;;;;;;;;20.64;30.99;101078.31;5026576;27;99956;-76
2021/05/19 11:58:48;;;;;;;;;;;;;;;20.77;30.40;101075.59;5023190;27;99593;-76
2021/05/19 12:01:17;;;;;;;;;;;;;;;20.66;30.80;101073.72;5026697;27;99007;-77
2021/05/19 12:03:45;;;;;;;;;;;;;;;20.88;29.47;101078.34;5028308;27;97340;-76
2021/05/19 12:06:12;;;;;;;;;;;;;;;20.74;29.06;101075.84;5028438;27;99484;-76
2021/05/19 12:08:39;;;;;;;;;;;;;;;20.99;28.40;101072.22;5029582;27;98744;-76
2021/05/19 12:11:06;;;;;;;;;;;;;;;21.26;28.21;101077.41;5025772;27;96829;-76
2021/05/19 12:13:36;;;;;;;;;;;;;;;21.78;27.95;101069.78;5026604;27;98398;-74
2021/05/19 12:16:02;;;;;;;;;;;;;;;21.78;28.57;101071.63;5030059;28;98853;-75
2021/05/19 12:18:28;;;;;;;;;;;;;;;21.22;28.86;101059.78;5031166;27;99045;-76
2021/05/19 12:20:53;;;;;;;;;;;;;;;21.71;28.96;101068.53;5026529;27;98124;-76
2021/05/19 12:23:20;;;;;;;;;;;;;;;21.41;28.63;101057.41;5035652;27;96834;-76
2021/05/19 12:25:46;;;;;;;;;;;;;;;21.68;28.46;101070.59;5024485;27;98932;-76
2021/05/19 12:28:22;;;;;;;;;;;;;;;22.10;27.87;101075.38;5028405;27;99051;-75
2021/05/19 12:30:49;;;;;;;;;;;;;;;21.27;28.55;101065.66;5032218;27;96760;-75
2021/05/19 12:33:18;;;;;;;;;;;;;;;20.59;29.44;101071.56;5029527;27;96898;-76
2021/05/19 12:35:46;;;;;;;;;;;;;;;20.88;30.04;101070.28;5028324;28;97989;-76
2021/05/19 12:38:12;;;;;;;;;;;;;;;21.04;29.87;101072.72;5028852;27;98810;-75
2021/05/19 12:40:39;;;;;;;;;;;;;;;22.09;28.41;101070.09;5026753;27;96827;-76
2021/05/19 12:43:06;;;;;;;;;;;;;;;22.32;27.71;101069.13;5027285;27;97008;-76